Time;durP1;ratioP1;P1;durP2;ratioP2;P2;SDS_P1;SDS_P2;PMS_P1;PMS_P2;Temp;Humidity;BMP_temperature;BMP_pressure;BME280_temperature;BME280_humidity;BME280_pressure;Samples;Min_cycle;Max_cycle;Signal;HPM_P1;HPM_P2
2022/03/15 00:00:57;;;;;;;114.68;103.43;;;7.50;85.00;;;;;;4974535;28;20055;-71
2022/03/15 00:03:24;;;;;;;113.43;102.28;;;7.50;85.00;;;;;;4993644;28;20110;-71
2022/03/15 00:05:51;;;;;;;114.35;103.18;;;7.50;84.90;;;;;;4975858;28;20051;-71
2022/03/15 00:08:19;;;;;;;114.10;103.00;;;7.50;85.10;;;;;;4993072;28;20055;-71
2022/03/15 00:10:48;;;;;;;114.13;102.97;;;7.40;85.30;;;;;;4975768;28;20506;-71
2022/03/15 00:13:15;;;;;;;114.47;103.38;;;7.40;85.40;;;;;;4976044;28;20047;-71
2022/03/15 00:15:42;;;;;;;115.60;104.30;;;7.40;85.50;;;;;;4975621;28;20179;-71
2022/03/15 00:18:10;;;;;;;115.53;104.32;;;7.40;85.60;;;;;;4993065;28;20051;-71
2022/03/15 00:20:38;;;;;;;118.28;106.45;;;7.40;85.90;;;;;;4977417;28;20568;-71
2022/03/15 00:23:05;;;;;;;118.25;106.43;;;7.30;85.80;;;;;;4979148;28;20050;-71
2022/03/15 00:25:32;;;;;;;116.90;105.00;;;7.20;85.60;;;;;;4978973;28;20429;-71
2022/03/15 00:27:59;;;;;;;116.97;105.38;;;7.10;86.00;;;;;;4979157;28;20070;-71
2022/03/15 00:30:27;;;;;;;118.82;107.00;;;7.00;86.50;;;;;;4996327;28;20055;-71
2022/03/15 00:32:55;;;;;;;117.10;105.47;;;6.90;86.90;;;;;;4979142;28;20086;-71
2022/03/15 00:35:24;;;;;;;116.85;105.15;;;7.00;87.20;;;;;;4978934;28;20144;-71
2022/03/15 00:37:52;;;;;;;117.18;105.40;;;6.90;87.30;;;;;;4978672;28;20074;-71
2022/03/15 00:40:21;;;;;;;116.30;104.70;;;6.90;87.50;;;;;;4978869;28;20046;-71
2022/03/15 00:42:50;;;;;;;115.95;104.40;;;6.90;87.70;;;;;;4978870;28;20059;-71
2022/03/15 00:45:23;;;;;;;117.10;105.40;;;6.90;87.80;;;;;;4979069;28;20050;-71
2022/03/15 00:47:50;;;;;;;116.07;104.30;;;6.90;87.90;;;;;;4978566;28;20055;-71
2022/03/15 00:50:18;;;;;;;115.90;104.05;;;6.90;87.90;;;;;;4978351;28;20049;-71
2022/03/15 00:52:46;;;;;;;116.65;104.85;;;6.90;88.00;;;;;;4978432;28;20061;-71
2022/03/15 00:55:13;;;;;;;117.90;106.10;;;6.90;88.20;;;;;;4963921;28;20047;-71
2022/03/15 00:57:40;;;;;;;117.53;105.72;;;6.90;88.00;;;;;;4974963;28;20150;-71
2022/03/15 01:00:09;;;;;;;114.25;102.90;;;6.90;88.10;;;;;;4975552;28;20071;-71
2022/03/15 01:02:36;;;;;;;114.18;102.78;;;6.90;88.30;;;;;;4943014;28;20051;-71
2022/03/15 01:05:07;;;;;;;114.40;102.80;;;6.90;88.30;;;;;;4975442;28;20052;-71
2022/03/15 01:07:34;;;;;;;114.32;102.93;;;6.90;88.20;;;;;;4976177;28;20146;-71
2022/03/15 01:10:04;;;;;;;113.88;102.72;;;6.90;88.30;;;;;;4958961;28;20804;-71
2022/03/15 01:12:31;;;;;;;114.30;103.00;;;6.90;88.10;;;;;;4958960;28;20055;-71
2022/03/15 01:14:58;;;;;;;113.38;102.22;;;6.90;88.00;;;;;;4959349;28;20792;-71
2022/03/15 01:17:26;;;;;;;115.03;103.50;;;6.80;88.00;;;;;;4958644;28;20508;-71
2022/03/15 01:19:53;;;;;;;114.60;103.07;;;6.80;88.00;;;;;;4958855;28;20048;-71
2022/03/15 01:22:20;;;;;;;114.57;103.18;;;6.80;88.30;;;;;;4958799;28;20075;-71
2022/03/15 01:24:47;;;;;;;114.22;102.63;;;6.70;88.40;;;;;;4974931;28;20051;-71
2022/03/15 01:27:16;;;;;;;115.28;103.97;;;6.70;88.60;;;;;;4959000;28;20062;-71
2022/03/15 01:29:43;;;;;;;115.93;104.22;;;6.70;88.80;;;;;;4959007;28;20077;-71
2022/03/15 01:32:10;;;;;;;113.65;102.45;;;6.70;88.80;;;;;;4958288;28;20061;-71
2022/03/15 01:34:37;;;;;;;114.63;103.35;;;6.70;89.00;;;;;;4958913;28;20504;-71
2022/03/15 01:37:05;;;;;;;116.57;105.22;;;6.70;88.80;;;;;;4974610;28;20101;-71
2022/03/15 01:39:31;;;;;;;116.93;105.30;;;6.60;88.70;;;;;;4975685;28;20062;-71
2022/03/15 01:41:59;;;;;;;115.35;103.75;;;6.60;88.70;;;;;;4958424;28;20086;-71
2022/03/15 01:44:29;;;;;;;115.20;103.90;;;6.50;89.30;;;;;;4976090;28;20055;-71
2022/03/15 01:46:56;;;;;;;115.43;104.13;;;6.50;89.20;;;;;;4958063;28;20054;-71
2022/03/15 01:49:23;;;;;;;115.85;104.30;;;6.50;89.90;;;;;;4958360;28;20055;-71
2022/03/15 01:51:51;;;;;;;115.63;104.22;;;6.40;89.80;;;;;;4958127;28;20079;-71
2022/03/15 01:54:20;;;;;;;118.28;106.57;;;6.40;90.00;;;;;;4958188;28;20521;-71
2022/03/15 01:56:47;;;;;;;117.63;105.88;;;6.30;90.20;;;;;;4958011;28;20051;-71
2022/03/15 01:59:17;;;;;;;118.80;106.78;;;6.20;90.30;;;;;;4974604;28;20575;-71
2022/03/15 02:01:46;;;;;;;118.68;106.70;;;6.20;90.60;;;;;;4958187;28;20051;-71
2022/03/15 02:04:15;;;;;;;118.95;106.88;;;6.20;90.70;;;;;;4958293;28;20051;-71
2022/03/15 02:06:44;;;;;;;120.20;108.15;;;6.10;90.70;;;;;;4973963;28;20063;-71
2022/03/15 02:09:12;;;;;;;119.18;107.28;;;6.10;90.90;;;;;;4957720;28;20047;-71
2022/03/15 02:11:39;;;;;;;118.25;106.05;;;6.10;91.00;;;;;;4958296;28;20134;-71
2022/03/15 02:14:07;;;;;;;119.35;107.10;;;6.10;91.10;;;;;;4975584;28;20094;-71
2022/03/15 02:16:34;;;;;;;118.88;106.57;;;6.10;91.10;;;;;;4957958;28;20134;-71
2022/03/15 02:19:04;;;;;;;120.68;107.78;;;6.20;91.20;;;;;;4957775;28;20520;-71
2022/03/15 02:21:34;;;;;;;120.40;107.72;;;6.20;91.10;;;;;;4958151;28;20051;-71
2022/03/15 02:24:01;;;;;;;116.38;104.68;;;6.20;91.10;;;;;;4957998;28;20138;-71
2022/03/15 02:26:27;;;;;;;118.28;105.78;;;6.20;91.10;;;;;;4957794;28;20126;-71
2022/03/15 02:28:55;;;;;;;118.30;105.70;;;6.20;91.10;;;;;;4957853;28;20475;-71
2022/03/15 02:34:26;;;;;;;118.03;105.70;;;6.20;91.20;;;;;;4955060;28;20059;-71
2022/03/15 02:36:57;;;;;;;117.45;105.30;;;6.10;91.10;;;;;;4973615;28;20051;-71
2022/03/15 02:39:24;;;;;;;116.95;105.15;;;6.10;91.10;;;;;;4975100;28;20056;-71
2022/03/15 02:41:51;;;;;;;117.78;105.45;;;6.20;91.20;;;;;;4973709;28;20490;-71
2022/03/15 02:44:19;;;;;;;117.03;104.90;;;6.20;91.20;;;;;;4974858;28;20079;-71
2022/03/15 02:46:49;;;;;;;116.25;104.35;;;6.20;91.20;;;;;;4975198;28;20051;-71
2022/03/15 02:49:16;;;;;;;118.47;106.05;;;6.20;91.20;;;;;;4957468;28;20057;-71
2022/03/15 02:51:43;;;;;;;117.03;105.03;;;6.20;91.00;;;;;;4957409;28;20051;-71
2022/03/15 02:54:13;;;;;;;118.13;106.10;;;6.20;91.00;;;;;;4963495;28;20541;-71
2022/03/15 02:56:42;;;;;;;118.68;106.05;;;6.10;91.10;;;;;;4993054;28;20097;-71
2022/03/15 02:59:09;;;;;;;116.68;104.68;;;6.10;91.10;;;;;;4976943;28;20117;-71
2022/03/15 03:01:36;;;;;;;117.20;105.15;;;6.20;91.20;;;;;;4977131;28;20087;-71
2022/03/15 03:04:06;;;;;;;117.20;105.43;;;6.20;91.10;;;;;;4976905;28;20051;-71
2022/03/15 03:06:33;;;;;;;117.00;105.00;;;6.20;91.10;;;;;;4976873;28;20142;-71
2022/03/15 03:09:00;;;;;;;115.20;103.38;;;6.20;91.10;;;;;;4976517;28;20588;-71
2022/03/15 03:11:28;;;;;;;114.97;103.50;;;6.30;91.10;;;;;;4994356;28;20411;-71
2022/03/15 03:13:56;;;;;;;115.13;103.32;;;6.20;91.00;;;;;;4976530;28;20126;-71
2022/03/15 03:16:24;;;;;;;115.45;103.95;;;6.20;90.80;;;;;;4976450;28;20053;-71
2022/03/15 03:18:56;;;;;;;116.57;104.78;;;6.20;90.70;;;;;;4993695;28;20046;-71
2022/03/15 03:21:25;;;;;;;116.30;104.50;;;6.20;90.80;;;;;;4976283;28;20054;-71
2022/03/15 03:23:53;;;;;;;115.68;103.88;;;6.10;90.80;;;;;;4992393;28;20043;-71
2022/03/15 03:26:23;;;;;;;115.60;103.93;;;6.10;90.80;;;;;;4976404;28;20747;-71
2022/03/15 03:28:52;;;;;;;117.00;104.93;;;6.00;90.70;;;;;;4993628;28;20062;-71
2022/03/15 03:31:20;;;;;;;116.82;104.93;;;6.00;90.90;;;;;;4976662;28;20047;-71
2022/03/15 03:33:48;;;;;;;116.43;104.18;;;6.00;91.30;;;;;;4993308;28;20054;-71
2022/03/15 03:36:15;;;;;;;116.22;104.13;;;5.90;91.20;;;;;;4976428;28;20047;-71
2022/03/15 03:38:42;;;;;;;115.88;104.10;;;6.00;91.30;;;;;;4993819;28;20047;-71
2022/03/15 03:41:09;;;;;;;114.45;102.75;;;5.90;91.30;;;;;;4992385;28;20050;-71
2022/03/15 03:43:35;;;;;;;115.18;103.55;;;5.90;91.30;;;;;;4976298;28;20057;-71
2022/03/15 03:46:04;;;;;;;116.13;104.40;;;5.90;91.30;;;;;;4994012;28;20497;-71
2022/03/15 03:48:32;;;;;;;115.43;103.47;;;5.90;91.30;;;;;;4975937;28;20051;-71
2022/03/15 03:51:00;;;;;;;116.35;104.35;;;5.90;91.40;;;;;;4976178;28;20051;-71
2022/03/15 03:53:27;;;;;;;115.90;103.75;;;5.90;91.40;;;;;;4992024;28;20067;-71
2022/03/15 03:55:54;;;;;;;117.72;105.90;;;5.90;91.50;;;;;;4958671;28;20051;-71
2022/03/15 03:58:21;;;;;;;117.15;105.10;;;5.80;91.60;;;;;;4959057;28;20055;-71
2022/03/15 04:00:48;;;;;;;115.18;103.57;;;5.90;91.70;;;;;;4960287;28;20499;-71
2022/03/15 04:03:17;;;;;;;115.95;104.35;;;5.90;91.80;;;;;;4958595;28;20051;-71
2022/03/15 04:05:45;;;;;;;115.88;104.13;;;5.90;91.80;;;;;;4959761;28;20110;-71
2022/03/15 04:08:14;;;;;;;114.57;102.95;;;5.90;91.80;;;;;;4959608;28;20676;-71
2022/03/15 04:10:41;;;;;;;115.10;103.50;;;5.90;91.80;;;;;;4976217;28;20506;-71
2022/03/15 04:13:08;;;;;;;114.43;102.72;;;5.90;91.70;;;;;;4959687;28;20055;-71
2022/03/15 04:15:35;;;;;;;115.85;104.15;;;5.90;91.70;;;;;;4975941;28;20117;-71
2022/03/15 04:18:03;;;;;;;116.13;104.53;;;5.90;91.80;;;;;;4959519;28;20106;-71
2022/03/15 04:20:33;;;;;;;114.57;102.53;;;5.90;91.80;;;;;;4959764;28;20178;-70
2022/03/15 04:23:00;;;;;;;117.38;105.28;;;5.90;91.90;;;;;;4959628;28;20047;-71
2022/03/15 04:25:27;;;;;;;117.05;104.72;;;5.90;92.00;;;;;;4959684;28;20051;-71
2022/03/15 04:27:56;;;;;;;117.70;105.63;;;5.80;92.00;;;;;;4943272;28;20073;-71
2022/03/15 04:30:24;;;;;;;116.75;104.65;;;5.80;92.10;;;;;;4959562;28;20106;-71
2022/03/15 04:32:51;;;;;;;117.13;105.07;;;5.80;92.10;;;;;;4976749;28;20555;-71
2022/03/15 04:35:18;;;;;;;118.18;105.75;;;5.80;92.20;;;;;;4959892;28;20071;-70
2022/03/15 04:37:47;;;;;;;116.80;104.85;;;5.80;92.20;;;;;;4959354;28;20059;-70
2022/03/15 04:40:16;;;;;;;116.15;104.00;;;5.80;92.30;;;;;;4959831;28;20047;-71
2022/03/15 04:42:43;;;;;;;117.97;105.55;;;5.80;92.40;;;;;;4977178;28;20061;-71
2022/03/15 04:45:10;;;;;;;117.75;105.82;;;5.80;92.50;;;;;;4959493;28;20106;-71
2022/03/15 04:47:38;;;;;;;116.30;104.15;;;5.90;92.50;;;;;;4976497;28;20055;-71
2022/03/15 04:50:07;;;;;;;116.93;104.55;;;5.90;92.60;;;;;;4959795;28;20410;-71
2022/03/15 04:52:34;;;;;;;116.47;104.45;;;5.90;92.60;;;;;;4959088;28;20051;-71
2022/03/15 04:55:03;;;;;;;118.45;106.35;;;5.90;92.60;;;;;;4989313;28;20055;-71
2022/03/15 04:57:30;;;;;;;117.78;105.68;;;5.90;92.70;;;;;;4995866;28;20142;-71
2022/03/15 04:59:57;;;;;;;119.10;106.32;;;6.00;92.70;;;;;;4995783;28;20050;-71
2022/03/15 05:02:25;;;;;;;118.30;106.07;;;6.00;92.70;;;;;;4978550;28;20114;-71
2022/03/15 05:04:52;;;;;;;116.82;104.85;;;6.00;92.70;;;;;;4995858;28;20501;-71
2022/03/15 05:07:20;;;;;;;117.57;105.65;;;6.10;92.70;;;;;;4994741;28;20058;-71
2022/03/15 05:12:33;;;;;;;118.65;106.00;;;6.10;92.70;;;;;;4978102;28;20501;-71
2022/03/15 05:15:00;;;;;;;119.35;106.65;;;6.20;92.90;;;;;;4978222;28;20097;-71
2022/03/15 05:17:27;;;;;;;121.07;107.88;;;6.20;92.80;;;;;;4978028;28;20102;-71
2022/03/15 05:19:55;;;;;;;120.60;107.72;;;6.20;92.80;;;;;;4995664;28;20469;-71
2022/03/15 05:22:22;;;;;;;122.50;109.20;;;6.20;92.80;;;;;;4995818;28;20055;-71
2022/03/15 05:24:49;;;;;;;122.28;109.47;;;6.20;92.90;;;;;;4978110;28;20739;-71
2022/03/15 05:27:17;;;;;;;124.55;110.97;;;6.20;92.90;;;;;;4978010;28;20050;-71
2022/03/15 05:29:45;;;;;;;123.20;110.00;;;6.30;93.00;;;;;;4978570;28;20051;-71
2022/03/15 05:32:12;;;;;;;123.22;110.13;;;6.30;93.10;;;;;;4995258;28;20066;-71
2022/03/15 05:34:39;;;;;;;120.43;108.03;;;6.30;93.00;;;;;;4994199;28;20055;-71
2022/03/15 05:37:08;;;;;;;123.00;110.40;;;6.40;93.10;;;;;;4994962;28;20519;-71
2022/03/15 05:39:35;;;;;;;119.43;107.15;;;6.40;93.10;;;;;;4994146;28;20137;-71
2022/03/15 05:42:02;;;;;;;120.47;108.00;;;6.40;93.10;;;;;;4995114;28;20517;-71
2022/03/15 05:44:29;;;;;;;122.47;109.82;;;6.40;93.10;;;;;;4993561;28;20061;-71
2022/03/15 05:46:57;;;;;;;123.05;110.45;;;6.40;93.10;;;;;;4994955;28;20137;-71
2022/03/15 05:49:24;;;;;;;122.18;109.68;;;6.40;93.20;;;;;;4977380;28;20791;-71
2022/03/15 05:51:51;;;;;;;125.88;112.95;;;6.40;93.20;;;;;;4994905;28;20055;-71
2022/03/15 05:54:18;;;;;;;123.65;110.75;;;6.40;93.20;;;;;;4970118;28;20062;-71
2022/03/15 05:56:45;;;;;;;124.72;111.88;;;6.40;93.30;;;;;;4975609;28;20070;-71
2022/03/15 05:59:13;;;;;;;123.88;110.97;;;6.40;93.30;;;;;;4957702;28;20057;-71
2022/03/15 06:01:40;;;;;;;127.32;114.13;;;6.40;93.30;;;;;;4957700;28;20131;-71
2022/03/15 06:04:10;;;;;;;123.53;110.88;;;6.40;93.30;;;;;;4957954;28;20501;-71
2022/03/15 06:06:37;;;;;;;124.03;111.15;;;6.50;93.40;;;;;;4975524;28;20055;-71
2022/03/15 06:09:05;;;;;;;125.78;112.43;;;6.50;93.30;;;;;;4941742;28;20103;-71
2022/03/15 06:11:32;;;;;;;124.60;111.47;;;6.50;93.40;;;;;;4957946;28;20489;-71
2022/03/15 06:13:59;;;;;;;125.97;112.63;;;6.50;93.40;;;;;;4957676;28;20106;-71
2022/03/15 06:16:26;;;;;;;131.02;117.38;;;6.60;93.50;;;;;;4957686;28;20058;-71
2022/03/15 06:18:54;;;;;;;138.15;115.07;;;6.60;93.50;;;;;;4974554;28;20576;-71
2022/03/15 06:21:22;;;;;;;130.20;115.60;;;6.60;93.50;;;;;;4957597;28;20047;-71
2022/03/15 06:27:36;;;;;;;131.10;116.93;;;6.60;93.60;;;;;;4950326;28;20552;-71
2022/03/15 06:30:05;;;;;;;132.88;118.57;;;6.60;93.50;;;;;;4938410;28;20048;-71
2022/03/15 06:32:32;;;;;;;131.20;117.45;;;6.60;93.60;;;;;;4938198;28;20048;-71
2022/03/15 06:34:59;;;;;;;130.43;116.53;;;6.70;93.70;;;;;;4955492;28;20092;-71
2022/03/15 06:37:28;;;;;;;131.40;116.95;;;6.70;93.80;;;;;;4955200;28;20506;-71
2022/03/15 06:39:55;;;;;;;132.70;118.25;;;6.70;94.00;;;;;;4955659;28;20062;-71
2022/03/15 06:42:22;;;;;;;135.82;121.13;;;6.70;94.00;;;;;;4938295;28;20518;-71
2022/03/15 06:44:49;;;;;;;133.15;118.93;;;6.70;94.10;;;;;;4938546;28;20091;-71
2022/03/15 06:47:16;;;;;;;134.18;119.68;;;6.70;94.10;;;;;;4953694;28;20059;-71
2022/03/15 06:49:44;;;;;;;131.80;117.57;;;6.80;94.10;;;;;;4953423;28;20063;-71
2022/03/15 06:52:11;;;;;;;134.05;119.70;;;6.80;94.10;;;;;;4937888;28;20074;-71
2022/03/15 06:54:40;;;;;;;133.27;119.13;;;6.80;94.20;;;;;;4964766;28;20059;-71
2022/03/15 06:57:07;;;;;;;137.75;122.60;;;6.80;94.30;;;;;;4956968;28;20146;-71
2022/03/15 06:59:34;;;;;;;135.57;120.85;;;6.90;94.30;;;;;;4967038;28;20060;-71
2022/03/15 07:02:01;;;;;;;134.88;120.97;;;6.90;94.30;;;;;;4952321;28;20047;-71
2022/03/15 07:04:28;;;;;;;143.98;121.82;;;6.90;94.40;;;;;;4936990;28;20058;-71
2022/03/15 07:06:55;;;;;;;134.88;120.35;;;6.90;94.40;;;;;;4953656;28;20146;-71
2022/03/15 07:09:23;;;;;;;134.00;119.70;;;7.00;94.50;;;;;;4954588;28;20146;-71
2022/03/15 07:11:51;;;;;;;136.50;122.05;;;7.00;94.50;;;;;;4937378;28;20054;-71
2022/03/15 07:14:19;;;;;;;134.65;120.18;;;7.00;94.70;;;;;;4954192;28;20059;-70
2022/03/15 07:16:46;;;;;;;132.95;118.45;;;7.00;94.70;;;;;;4951816;28;20147;-71
2022/03/15 07:19:12;;;;;;;132.70;118.85;;;7.00;94.80;;;;;;4936972;28;20056;-71
2022/03/15 07:21:40;;;;;;;133.90;119.63;;;7.00;94.80;;;;;;4954732;28;20520;-72
2022/03/15 07:24:08;;;;;;;137.90;123.00;;;7.10;94.80;;;;;;4951175;28;20051;-71
2022/03/15 07:26:35;;;;;;;138.50;120.95;;;7.10;94.80;;;;;;4935606;28;20051;-71
2022/03/15 07:29:03;;;;;;;135.07;120.93;;;7.10;94.80;;;;;;4952317;28;20087;-70
2022/03/15 07:31:34;;;;;;;134.30;119.72;;;7.10;94.90;;;;;;4938947;28;20055;-71
2022/03/15 07:34:01;;;;;;;135.15;120.78;;;7.20;95.00;;;;;;4940345;28;20062;-71
2022/03/15 07:36:28;;;;;;;135.60;120.85;;;7.20;95.00;;;;;;4940641;28;20060;-71
2022/03/15 07:38:55;;;;;;;136.80;122.20;;;7.20;95.00;;;;;;4940049;28;20062;-71
2022/03/15 07:41:23;;;;;;;135.57;121.10;;;7.30;95.00;;;;;;4940257;28;20056;-71
2022/03/15 07:43:51;;;;;;;136.63;122.13;;;7.30;95.00;;;;;;4939983;28;20083;-71
2022/03/15 07:46:20;;;;;;;134.85;120.70;;;7.30;95.10;;;;;;4957454;28;20051;-70
2022/03/15 07:48:47;;;;;;;134.93;120.93;;;7.30;95.20;;;;;;4957397;28;20066;-71
2022/03/15 07:51:14;;;;;;;136.93;122.45;;;7.30;95.10;;;;;;4957037;28;20150;-71
2022/03/15 07:53:41;;;;;;;136.35;122.25;;;7.40;95.10;;;;;;4958805;28;20060;-71
2022/03/15 07:56:08;;;;;;;136.45;122.03;;;7.40;95.20;;;;;;4956146;28;20103;-71
2022/03/15 07:58:35;;;;;;;136.13;121.53;;;7.40;95.20;;;;;;4939558;28;20058;-71
2022/03/15 08:01:02;;;;;;;139.10;122.38;;;7.50;95.20;;;;;;4955761;28;20059;-71
2022/03/15 08:03:30;;;;;;;138.27;123.28;;;7.50;95.20;;;;;;4939749;28;20062;-70
2022/03/15 08:05:57;;;;;;;135.40;120.80;;;7.50;95.20;;;;;;4957323;28;20056;-70
2022/03/15 08:08:24;;;;;;;134.98;120.60;;;7.60;95.20;;;;;;4955995;28;20130;-70
2022/03/15 08:10:52;;;;;;;134.25;120.35;;;7.60;95.30;;;;;;4957082;28;20052;-70
2022/03/15 08:13:19;;;;;;;155.63;126.25;;;7.60;95.40;;;;;;4955961;28;20138;-70
2022/03/15 08:15:46;;;;;;;139.40;124.63;;;7.60;95.40;;;;;;4955878;28;20051;-70
2022/03/15 08:18:13;;;;;;;136.60;122.70;;;7.60;95.40;;;;;;4938941;28;20055;-70
2022/03/15 08:20:42;;;;;;;134.07;120.43;;;7.70;95.50;;;;;;4955287;28;20194;-70
2022/03/15 08:23:10;;;;;;;138.50;124.05;;;7.70;95.70;;;;;;4957004;28;20127;-70
2022/03/15 08:25:38;;;;;;;135.73;121.95;;;7.60;95.50;;;;;;4937599;28;20058;-70
2022/03/15 08:28:05;;;;;;;137.32;123.15;;;7.70;95.60;;;;;;4928021;28;20253;-70
2022/03/15 08:30:33;;;;;;;137.52;123.55;;;7.70;95.70;;;;;;4956523;28;20147;-70
2022/03/15 08:33:00;;;;;;;134.80;120.90;;;7.70;95.80;;;;;;4956819;28;20051;-70
2022/03/15 08:35:27;;;;;;;134.82;121.03;;;7.70;95.70;;;;;;4939705;28;20055;-71
2022/03/15 08:37:55;;;;;;;137.05;123.10;;;7.70;95.70;;;;;;4954843;28;20044;-72
2022/03/15 08:40:23;;;;;;;136.98;122.90;;;7.70;95.90;;;;;;4938381;28;20152;-71
2022/03/15 08:42:55;;;;;;;136.52;122.63;;;7.70;95.90;;;;;;4942846;28;20462;-70
2022/03/15 08:45:23;;;;;;;141.75;127.35;;;7.70;95.90;;;;;;4938078;28;20182;-70
2022/03/15 08:47:50;;;;;;;138.57;123.88;;;7.80;96.00;;;;;;4954042;28;20058;-70
2022/03/15 08:50:19;;;;;;;137.25;123.10;;;7.80;96.00;;;;;;4954059;28;20051;-70
2022/03/15 08:52:47;;;;;;;136.48;122.40;;;7.80;96.00;;;;;;4938456;28;20071;-70
2022/03/15 08:55:16;;;;;;;137.10;123.18;;;7.80;96.00;;;;;;4950863;28;20051;-70
2022/03/15 08:57:44;;;;;;;138.68;124.32;;;7.80;96.00;;;;;;4921766;28;20048;-70
2022/03/15 09:00:12;;;;;;;138.02;123.82;;;7.90;96.00;;;;;;4938471;28;20052;-71
2022/03/15 09:02:39;;;;;;;139.63;125.30;;;7.90;96.10;;;;;;4955574;28;20447;-71
2022/03/15 09:05:07;;;;;;;136.27;122.32;;;8.00;96.00;;;;;;4954406;28;20522;-71
2022/03/15 09:07:36;;;;;;;138.50;123.80;;;8.00;96.00;;;;;;4953138;28;20126;-71
2022/03/15 09:10:04;;;;;;;138.52;124.15;;;8.00;96.10;;;;;;4952941;28;20056;-70
2022/03/15 09:12:34;;;;;;;138.18;124.07;;;8.10;96.10;;;;;;4954369;28;20512;-72
2022/03/15 09:15:01;;;;;;;137.60;123.57;;;8.10;96.10;;;;;;4937198;28;20056;-72
2022/03/15 09:17:28;;;;;;;139.50;125.00;;;8.10;96.10;;;;;;4953612;28;20092;-73
2022/03/15 09:20:20;;;;;;;136.68;122.45;;;8.10;96.10;;;;;;4951845;28;20048;-73
2022/03/15 09:22:47;;;;;;;137.63;123.43;;;8.20;96.10;;;;;;4953616;28;20103;-71
2022/03/15 09:25:15;;;;;;;137.32;123.20;;;8.20;96.10;;;;;;4956236;28;20080;-71
2022/03/15 09:27:43;;;;;;;139.70;125.10;;;8.30;96.20;;;;;;4938558;28;20529;-72
2022/03/15 09:30:11;;;;;;;138.48;123.93;;;8.30;96.20;;;;;;4939267;28;20044;-74
2022/03/15 09:32:38;;;;;;;139.75;124.95;;;8.30;96.20;;;;;;4939445;28;20062;-74
2022/03/15 09:35:06;;;;;;;189.63;130.55;;;8.30;96.20;;;;;;4954180;28;20055;-74
2022/03/15 09:37:34;;;;;;;172.02;128.15;;;8.30;96.30;;;;;;4939346;28;20058;-74
2022/03/15 09:40:01;;;;;;;191.32;127.45;;;8.40;96.20;;;;;;4956917;28;20079;-73
2022/03/15 09:42:30;;;;;;;155.57;125.45;;;8.40;96.20;;;;;;4956365;28;20134;-75
2022/03/15 09:44:59;;;;;;;136.52;121.55;;;8.40;96.30;;;;;;4954977;28;20052;-72
2022/03/15 09:47:33;;;;;;;136.82;122.57;;;8.40;96.30;;;;;;4938916;28;20111;-73
2022/03/15 09:50:04;;;;;;;139.63;124.93;;;8.50;96.40;;;;;;4955291;28;20559;-73
2022/03/15 09:52:31;;;;;;;138.80;125.00;;;8.50;96.40;;;;;;4936937;28;20060;-73
2022/03/15 09:54:59;;;;;;;133.23;119.78;;;8.50;96.40;;;;;;4958812;28;20077;-72
2022/03/15 09:57:28;;;;;;;136.77;122.85;;;8.60;96.50;;;;;;4937846;28;20157;-73
2022/03/15 10:00:00;;;;;;;135.02;121.43;;;8.60;96.50;;;;;;4954998;28;20576;-74
2022/03/15 10:02:27;;;;;;;137.38;123.38;;;8.60;96.60;;;;;;4952619;28;20056;-74
2022/03/15 10:04:54;;;;;;;136.25;122.80;;;8.70;96.60;;;;;;4937483;28;20051;-73
2022/03/15 10:07:22;;;;;;;136.55;122.82;;;8.70;96.60;;;;;;4937854;28;20062;-73
2022/03/15 10:09:52;;;;;;;137.68;123.80;;;8.80;96.70;;;;;;4954387;28;20052;-74
2022/03/15 10:12:19;;;;;;;135.38;121.72;;;8.80;96.70;;;;;;4937237;28;20111;-74
2022/03/15 10:14:48;;;;;;;136.32;122.57;;;8.80;96.70;;;;;;4921132;28;20138;-74
2022/03/15 10:17:17;;;;;;;134.85;121.57;;;8.90;96.70;;;;;;4937362;28;20048;-74
2022/03/15 10:19:54;;;;;;;135.43;121.10;;;8.90;96.70;;;;;;4955384;28;20133;-73
2022/03/15 10:22:22;;;;;;;168.38;126.90;;;8.90;96.70;;;;;;4953393;28;20139;-73
2022/03/15 10:24:49;;;;;;;136.77;122.43;;;9.00;96.80;;;;;;4938237;28;20058;-73
2022/03/15 10:27:17;;;;;;;190.52;130.18;;;9.00;96.80;;;;;;4938029;28;20494;-72
2022/03/15 10:29:46;;;;;;;363.58;146.75;;;9.10;96.80;;;;;;4954073;28;20055;-74
2022/03/15 10:32:14;;;;;;;149.77;124.35;;;9.10;96.70;;;;;;4938227;28;20124;-74
2022/03/15 10:34:44;;;;;;;134.60;120.90;;;9.10;96.70;;;;;;4955341;28;21034;-75
2022/03/15 10:37:11;;;;;;;135.90;122.28;;;9.20;96.80;;;;;;4953911;28;20052;-74
2022/03/15 10:39:39;;;;;;;130.73;117.90;;;9.20;96.80;;;;;;4938060;28;20055;-75
2022/03/15 10:42:08;;;;;;;132.40;119.30;;;9.30;96.80;;;;;;4954159;28;20047;-74
2022/03/15 10:44:37;;;;;;;140.73;126.43;;;9.30;96.90;;;;;;4954408;28;20165;-74
2022/03/15 10:47:07;;;;;;;137.80;123.93;;;9.40;97.00;;;;;;4954361;28;20052;-73
2022/03/15 10:49:48;;;;;;;133.05;119.80;;;9.50;97.00;;;;;;4937474;28;20064;-73
2022/03/15 10:52:28;;;;;;;135.48;121.90;;;9.50;97.00;;;;;;4937550;28;20146;-73
2022/03/15 10:54:55;;;;;;;133.93;121.05;;;9.60;97.00;;;;;;4938090;28;20115;-76
2022/03/15 10:57:22;;;;;;;138.55;124.85;;;9.60;97.00;;;;;;4952859;28;20063;-75
2022/03/15 10:59:49;;;;;;;136.63;123.45;;;9.70;97.00;;;;;;4953542;28;20047;-75
2022/03/15 11:02:16;;;;;;;130.98;118.22;;;9.70;97.00;;;;;;4937594;28;20056;-73
2022/03/15 11:04:49;;;;;;;131.80;118.80;;;9.80;97.00;;;;;;4937554;28;20059;-74
2022/03/15 11:07:16;;;;;;;131.75;118.95;;;9.90;97.00;;;;;;4937255;28;20606;-73
2022/03/15 11:09:50;;;;;;;133.10;119.00;;;9.90;97.00;;;;;;4937032;28;20079;-76
2022/03/15 11:12:17;;;;;;;130.00;116.95;;;10.00;97.00;;;;;;4954190;28;20056;-73
2022/03/15 11:14:47;;;;;;;133.05;119.65;;;10.00;97.00;;;;;;4935560;28;20063;-76
2022/03/15 11:17:16;;;;;;;120.13;108.57;;;10.10;97.00;;;;;;4952850;28;20051;-73
2022/03/15 11:19:47;;;;;;;126.53;114.05;;;10.10;96.90;;;;;;4934550;28;20059;-74
2022/03/15 11:22:20;;;;;;;128.20;115.70;;;10.20;96.90;;;;;;4955113;28;20142;-74
2022/03/15 11:24:55;;;;;;;173.38;123.53;;;10.30;96.90;;;;;;4951615;28;20062;-76
2022/03/15 11:27:26;;;;;;;126.00;112.93;;;10.30;96.80;;;;;;4928764;28;20063;-75
2022/03/15 11:29:57;;;;;;;128.05;115.53;;;10.40;96.80;;;;;;4953985;28;20797;-73
2022/03/15 11:32:24;;;;;;;128.85;115.28;;;10.40;96.70;;;;;;4935453;28;20466;-74
2022/03/15 11:34:51;;;;;;;128.02;114.63;;;10.50;96.80;;;;;;4953854;28;20548;-76
2022/03/15 11:37:20;;;;;;;130.30;117.18;;;10.50;96.50;;;;;;4936733;28;20091;-75
2022/03/15 11:39:47;;;;;;;126.75;113.95;;;10.60;96.40;;;;;;4952689;28;20143;-76
2022/03/15 11:42:16;;;;;;;125.40;113.20;;;10.60;96.30;;;;;;4922082;28;20605;-76
2022/03/15 11:44:55;;;;;;;124.95;113.03;;;10.60;96.20;;;;;;4952873;28;20062;-76
2022/03/15 11:47:31;;;;;;;127.00;114.75;;;10.70;96.20;;;;;;4951976;28;20062;-76
2022/03/15 11:50:07;;;;;;;127.82;115.13;;;10.70;96.00;;;;;;4937614;28;20560;-77
2022/03/15 11:52:57;;;;;;;129.32;116.85;;;10.70;95.90;;;;;;4953068;28;20115;-74
2022/03/15 11:55:30;;;;;;;128.50;116.05;;;10.80;95.90;;;;;;4950289;28;20051;-75
2022/03/15 11:58:03;;;;;;;130.75;117.85;;;10.80;95.90;;;;;;4936586;28;20099;-76
2022/03/15 12:00:32;;;;;;;129.00;116.15;;;10.80;95.90;;;;;;4954251;28;20054;-74
2022/03/15 12:03:03;;;;;;;131.88;119.05;;;10.90;95.80;;;;;;4953475;28;20138;-74
2022/03/15 12:05:30;;;;;;;131.43;118.40;;;10.90;95.80;;;;;;4954799;28;20110;-74
2022/03/15 12:08:13;;;;;;;128.65;116.15;;;10.90;95.80;;;;;;4936930;28;20062;-75
2022/03/15 12:10:46;;;;;;;128.77;116.10;;;10.90;95.60;;;;;;4944960;28;20055;-76
2022/03/15 12:13:15;;;;;;;126.47;113.65;;;11.00;95.60;;;;;;4937534;28;20070;-76
2022/03/15 12:15:44;;;;;;;127.65;113.90;;;11.00;95.60;;;;;;4955318;28;20056;-76
2022/03/15 12:18:33;;;;;;;126.07;113.63;;;11.00;95.60;;;;;;4940667;28;20116;-76
2022/03/15 12:21:08;;;;;;;124.65;112.47;;;11.10;95.50;;;;;;4949038;28;20052;-76
2022/03/15 12:23:42;;;;;;;127.73;115.13;;;11.10;95.40;;;;;;4956452;28;20052;-75
2022/03/15 12:26:26;;;;;;;127.45;115.20;;;11.10;95.30;;;;;;4955130;28;20052;-76
2022/03/15 12:29:02;;;;;;;148.50;116.57;;;11.10;95.10;;;;;;4922259;28;20081;-80
2022/03/15 12:31:42;;;;;;;127.80;115.30;;;11.20;95.20;;;;;;4953991;28;20139;-83